createdAt,value
2018-07-15T00:00:25.296Z,1033.53
2018-07-15T00:01:25.291Z,1033.54
2018-07-15T00:02:25.286Z,1033.55
2018-07-15T00:03:25.281Z,1033.55
2018-07-15T00:04:25.275Z,1033.54
2018-07-15T00:05:25.271Z,1033.58
2018-07-15T00:06:25.266Z,1033.55
2018-07-15T00:07:25.260Z,1033.57
2018-07-15T00:08:25.304Z,1033.53
2018-07-15T00:09:25.255Z,1033.56
2018-07-15T00:10:25.251Z,1033.51
2018-07-15T00:11:25.240Z,1033.52
2018-07-15T00:12:25.235Z,1033.51
2018-07-15T00:13:25.230Z,1033.53
2018-07-15T00:14:25.224Z,1033.53
2018-07-15T00:15:25.220Z,1033.57
2018-07-15T00:16:25.217Z,1033.56
2018-07-15T00:17:25.210Z,1033.58
2018-07-15T00:18:25.204Z,1033.59
2018-07-15T00:19:25.199Z,1033.61
2018-07-15T00:20:25.198Z,1033.62
2018-07-15T00:21:25.191Z,1033.61
2018-07-15T00:22:25.184Z,1033.63
2018-07-15T00:23:25.181Z,1033.63
2018-07-15T00:24:25.176Z,1033.61
2018-07-15T00:25:25.168Z,1033.61
2018-07-15T00:26:25.163Z,1033.6
2018-07-15T00:27:25.159Z,1033.65
2018-07-15T00:28:25.154Z,1033.65
2018-07-15T00:29:25.147Z,1033.68
2018-07-15T00:30:25.143Z,1033.66
2018-07-15T00:31:25.140Z,1033.67
2018-07-15T00:32:25.138Z,1033.68
2018-07-15T00:33:25.129Z,1033.7
2018-07-15T00:34:25.141Z,1033.69
2018-07-15T00:35:25.118Z,1033.7
2018-07-15T00:36:25.123Z,1033.66
2018-07-15T00:37:25.107Z,1033.72
2018-07-15T00:38:25.102Z,1033.75
2018-07-15T00:39:25.097Z,1033.72
2018-07-15T00:40:25.098Z,1033.68
2018-07-15T00:41:25.086Z,1033.68
2018-07-15T00:42:25.082Z,1033.68
2018-07-15T00:43:25.076Z,1033.72
2018-07-15T00:44:25.087Z,1033.69
2018-07-15T00:45:25.065Z,1033.64
2018-07-15T00:46:25.060Z,1033.64
2018-07-15T00:47:25.054Z,1033.61
2018-07-15T00:48:25.050Z,1033.64
2018-07-15T00:49:25.046Z,1033.62
2018-07-15T00:50:25.289Z,1033.62
2018-07-15T00:51:25.034Z,1033.63
2018-07-15T00:52:25.028Z,1033.62
2018-07-15T00:53:25.026Z,1033.63
2018-07-15T00:54:25.019Z,1033.66
2018-07-15T00:55:25.085Z,1033.68
2018-07-15T00:56:25.007Z,1033.66
2018-07-15T00:57:25.005Z,1033.7
2018-07-15T00:58:24.996Z,1033.69
2018-07-15T00:59:24.991Z,1033.69
2018-07-15T01:00:24.986Z,1033.71
2018-07-15T01:01:24.981Z,1033.7
2018-07-15T01:02:24.974Z,1033.68
2018-07-15T01:03:24.969Z,1033.7
2018-07-15T01:04:24.964Z,1033.7
2018-07-15T01:05:24.961Z,1033.7
2018-07-15T01:06:24.953Z,1033.68
2018-07-15T01:07:24.951Z,1033.66
2018-07-15T01:08:24.943Z,1033.64
2018-07-15T01:09:24.937Z,1033.63
2018-07-15T01:10:24.934Z,1033.66
2018-07-15T01:11:24.926Z,1033.68
2018-07-15T01:12:24.921Z,1033.66
2018-07-15T01:13:24.914Z,1033.69
2018-07-15T01:14:24.909Z,1033.68
2018-07-15T01:15:24.904Z,1033.69
2018-07-15T01:16:24.898Z,1033.7
2018-07-15T01:17:24.900Z,1033.7
2018-07-15T01:18:24.887Z,1033.68
2018-07-15T01:19:24.883Z,1033.66
2018-07-15T01:20:24.879Z,1033.68
2018-07-15T01:21:24.871Z,1033.64
2018-07-15T01:22:24.866Z,1033.65
2018-07-15T01:23:24.860Z,1033.67
2018-07-15T01:24:24.861Z,1033.64
2018-07-15T01:25:24.850Z,1033.64
2018-07-15T01:26:24.844Z,1033.64
2018-07-15T01:27:24.838Z,1033.62
2018-07-15T01:28:24.833Z,1033.63
2018-07-15T01:29:24.830Z,1033.63
2018-07-15T01:30:24.822Z,1033.63
2018-07-15T01:31:24.816Z,1033.58
2018-07-15T01:32:24.811Z,1033.62
2018-07-15T01:33:24.808Z,1033.6
2018-07-15T01:34:24.800Z,1033.61
2018-07-15T01:35:24.794Z,1033.6
2018-07-15T01:36:24.791Z,1033.57
2018-07-15T01:37:24.784Z,1033.59
2018-07-15T01:38:24.777Z,1033.53
2018-07-15T01:39:24.772Z,1033.58
2018-07-15T01:40:24.766Z,1033.56
2018-07-15T01:41:24.761Z,1033.56
2018-07-15T01:42:24.755Z,1033.59
2018-07-15T01:43:24.752Z,1033.57
2018-07-15T01:44:24.754Z,1033.56
2018-07-15T01:45:24.739Z,1033.58
2018-07-15T01:46:24.733Z,1033.58
2018-07-15T01:47:24.727Z,1033.58
2018-07-15T01:48:24.722Z,1033.57
2018-07-15T01:49:24.715Z,1033.59
2018-07-15T01:50:24.710Z,1033.6
2018-07-15T01:51:24.705Z,1033.58
2018-07-15T01:52:24.699Z,1033.61
2018-07-15T01:53:24.693Z,1033.59
2018-07-15T01:54:24.688Z,1033.6
2018-07-15T01:55:24.682Z,1033.63
2018-07-15T01:56:24.681Z,1033.57
2018-07-15T01:57:24.671Z,1033.56
2018-07-15T01:58:24.666Z,1033.61
2018-07-15T01:59:24.660Z,1033.6
2018-07-15T02:00:24.655Z,1033.59
2018-07-15T02:01:24.649Z,1033.62
2018-07-15T02:02:24.644Z,1033.62
2018-07-15T02:03:24.638Z,1033.63
2018-07-15T02:04:24.631Z,1033.67
2018-07-15T02:05:24.629Z,1033.62
2018-07-15T02:06:24.625Z,1033.68
2018-07-15T02:07:24.616Z,1033.67
2018-07-15T02:08:24.609Z,1033.7
2018-07-15T02:09:24.609Z,1033.66
2018-07-15T02:10:24.600Z,1033.72
2018-07-15T02:11:24.592Z,1033.73
2018-07-15T02:12:24.588Z,1033.73
2018-07-15T02:13:24.584Z,1033.69
2018-07-15T02:14:24.579Z,1033.74
2018-07-15T02:15:24.571Z,1033.69
2018-07-15T02:16:24.564Z,1033.69
2018-07-15T02:17:24.559Z,1033.7
2018-07-15T02:18:24.554Z,1033.67
2018-07-15T02:19:24.547Z,1033.7
2018-07-15T02:20:24.542Z,1033.68
2018-07-15T02:21:24.537Z,1033.64
2018-07-15T02:22:24.529Z,1033.64
2018-07-15T02:23:24.568Z,1033.6
2018-07-15T02:24:24.519Z,1033.62
2018-07-15T02:25:24.513Z,1033.67
2018-07-15T02:26:24.507Z,1033.62
2018-07-15T02:27:24.502Z,1033.62
2018-07-15T02:28:24.496Z,1033.64
2018-07-15T02:29:24.489Z,1033.62
2018-07-15T02:30:24.485Z,1033.6
2018-07-15T02:31:24.478Z,1033.58
2018-07-15T02:32:24.476Z,1033.62
2018-07-15T02:33:24.466Z,1033.61
2018-07-15T02:34:24.461Z,1033.63
2018-07-15T02:35:24.456Z,1033.66
2018-07-15T02:36:24.450Z,1033.65
2018-07-15T02:37:24.443Z,1033.61
2018-07-15T02:38:24.438Z,1033.64
2018-07-15T02:39:24.432Z,1033.59
2018-07-15T02:40:24.426Z,1033.64
2018-07-15T02:41:24.420Z,1033.64
2018-07-15T02:42:24.414Z,1033.63
2018-07-15T02:43:24.409Z,1033.63
2018-07-15T02:44:24.402Z,1033.6
2018-07-15T02:45:24.396Z,1033.63
2018-07-15T02:46:24.391Z,1033.63
2018-07-15T02:47:24.385Z,1033.63
2018-07-15T02:48:24.378Z,1033.62
2018-07-15T02:49:24.372Z,1033.63
2018-07-15T02:50:24.367Z,1033.65
2018-07-15T02:51:24.361Z,1033.64
2018-07-15T02:52:24.355Z,1033.64
2018-07-15T02:53:24.350Z,1033.65
2018-07-15T02:54:24.344Z,1033.64
2018-07-15T02:55:24.341Z,1033.62
2018-07-15T02:56:24.331Z,1033.64
2018-07-15T02:57:24.326Z,1033.62
2018-07-15T02:58:24.322Z,1033.62
2018-07-15T02:59:24.314Z,1033.59
2018-07-15T03:00:24.308Z,1033.55
2018-07-15T03:01:24.302Z,1033.6
2018-07-15T03:02:24.295Z,1033.59
2018-07-15T03:03:24.290Z,1033.58
2018-07-15T03:04:24.284Z,1033.57
2018-07-15T03:05:24.279Z,1033.56
2018-07-15T03:06:24.272Z,1033.59
2018-07-15T03:07:24.266Z,1033.64
2018-07-15T03:08:24.261Z,1033.61
2018-07-15T03:09:24.255Z,1033.6
2018-07-15T03:10:24.257Z,1033.61
2018-07-15T03:11:24.242Z,1033.65
2018-07-15T03:12:24.242Z,1033.64
2018-07-15T03:13:24.229Z,1033.67
2018-07-15T03:14:24.224Z,1033.69
2018-07-15T03:15:24.219Z,1033.63
2018-07-15T03:16:24.216Z,1033.66
2018-07-15T03:17:24.219Z,1033.68
2018-07-15T03:18:24.201Z,1033.66
2018-07-15T03:19:24.199Z,1033.67
2018-07-15T03:20:24.193Z,1033.63
2018-07-15T03:21:24.183Z,1033.63
2018-07-15T03:22:24.177Z,1033.6
2018-07-15T03:23:24.172Z,1033.58
2018-07-15T03:24:24.164Z,1033.55
2018-07-15T03:25:24.159Z,1033.51
2018-07-15T03:26:24.404Z,1033.52
2018-07-15T03:27:24.148Z,1033.49
2018-07-15T03:28:24.140Z,1033.46
2018-07-15T03:29:24.140Z,1033.41
2018-07-15T03:30:24.138Z,1033.42
2018-07-15T03:31:24.125Z,1033.38
2018-07-15T03:32:24.117Z,1033.36
2018-07-15T03:33:24.112Z,1033.31
2018-07-15T03:34:24.107Z,1033.32
2018-07-15T03:35:24.101Z,1033.22
2018-07-15T03:36:24.095Z,1033.23
2018-07-15T03:37:24.093Z,1033.18
2018-07-15T03:38:24.084Z,1033.17
2018-07-15T03:39:24.077Z,1033.13
2018-07-15T03:40:24.071Z,1033.04
2018-07-15T03:41:24.070Z,1032.96
2018-07-15T03:42:24.062Z,1032.9
2018-07-15T03:43:24.056Z,1032.88
2018-07-15T03:44:24.050Z,1032.79
2018-07-15T03:45:24.045Z,1032.73
2018-07-15T03:46:24.050Z,1032.66
2018-07-15T03:47:24.034Z,1032.66
2018-07-15T03:48:24.030Z,1032.63
2018-07-15T03:49:24.023Z,1032.53
2018-07-15T03:50:24.017Z,1032.35
2018-07-15T03:51:24.013Z,1032.31
2018-07-15T03:52:24.011Z,1032.27
2018-07-15T03:53:24.005Z,1032.23
2018-07-15T03:54:23.996Z,1032.24
2018-07-15T03:55:23.991Z,1032.23
2018-07-15T03:56:23.989Z,1032.24
2018-07-15T03:57:24.250Z,1032.26
2018-07-15T03:58:23.976Z,1032.29
2018-07-15T03:59:23.990Z,1032.3
2018-07-15T04:00:23.968Z,1032.35
2018-07-15T04:01:23.962Z,1032.34
2018-07-15T04:02:23.958Z,1032.34
2018-07-15T04:03:23.958Z,1032.29
2018-07-15T04:04:23.948Z,1032.28
2018-07-15T04:05:23.942Z,1032.23
2018-07-15T04:06:23.938Z,1032.2
2018-07-15T04:07:23.939Z,1032.11
2018-07-15T04:08:23.934Z,1032.08
2018-07-15T04:09:23.924Z,1032.03
2018-07-15T04:10:23.920Z,1031.96
2018-07-15T04:11:23.916Z,1031.96
2018-07-15T04:12:23.915Z,1031.92
2018-07-15T04:13:23.908Z,1031.93
2018-07-15T04:14:23.908Z,1031.9
2018-07-15T04:15:23.899Z,1031.85
2018-07-15T04:16:23.896Z,1031.85
2018-07-15T04:17:23.889Z,1031.83
2018-07-15T04:18:23.886Z,1031.78
2018-07-15T04:19:23.882Z,1031.79
2018-07-15T04:20:23.877Z,1031.81
2018-07-15T04:21:23.873Z,1031.61
2018-07-15T04:22:23.870Z,1031.56
2018-07-15T04:23:23.869Z,1031.56
2018-07-15T04:24:23.861Z,1031.57
2018-07-15T04:25:23.857Z,1031.61
2018-07-15T04:26:23.853Z,1031.67
2018-07-15T04:27:23.857Z,1031.64
2018-07-15T04:28:23.932Z,1031.69
2018-07-15T04:29:23.844Z,1031.71
2018-07-15T04:30:23.837Z,1031.71
2018-07-15T04:31:23.840Z,1031.46
2018-07-15T04:32:23.831Z,1031.04
2018-07-15T04:33:23.829Z,1030.58
2018-07-15T04:34:23.828Z,1030.22
2018-07-15T04:35:23.825Z,1030.23
2018-07-15T04:36:23.822Z,1030.29
2018-07-15T04:37:23.814Z,1030.33
2018-07-15T04:38:23.811Z,1030.31
2018-07-15T04:39:23.811Z,1030.33
2018-07-15T04:40:23.818Z,1030.37
2018-07-15T04:41:23.810Z,1030.43
2018-07-15T04:42:23.800Z,1030.55
2018-07-15T04:43:23.798Z,1030.6
2018-07-15T04:44:23.798Z,1030.71
2018-07-15T04:45:23.792Z,1030.76
2018-07-15T04:46:23.791Z,1030.82
2018-07-15T04:47:23.789Z,1030.87
2018-07-15T04:48:23.785Z,1030.88
2018-07-15T04:49:23.783Z,1030.81
2018-07-15T04:50:23.797Z,1030.62
2018-07-15T04:51:23.785Z,1030.45
2018-07-15T04:52:23.786Z,1030.22
2018-07-15T04:53:23.777Z,1030.01
2018-07-15T04:54:23.789Z,1029.61
2018-07-15T04:55:23.773Z,1029.26
2018-07-15T04:56:23.769Z,1029.35
2018-07-15T04:57:23.772Z,1029.44
2018-07-15T04:58:23.766Z,1029.5
2018-07-15T04:59:23.764Z,1029.51
2018-07-15T05:00:23.764Z,1029.34
2018-07-15T05:01:23.765Z,1029.11
2018-07-15T05:02:23.764Z,1029.02
2018-07-15T05:03:23.763Z,1028.62
2018-07-15T05:04:23.760Z,1028.65
2018-07-15T05:05:23.761Z,1028.09
2018-07-15T05:06:23.762Z,1028.15
2018-07-15T05:07:23.762Z,1027.97
2018-07-15T05:09:23.765Z,1027.83
2018-07-15T05:10:23.763Z,1027.56
2018-07-15T05:11:23.877Z,1027.5
2018-07-15T05:12:23.768Z,1027.27
2018-07-15T05:13:23.773Z,1027.07
2018-07-15T05:14:23.778Z,1027.26
2018-07-15T05:15:23.774Z,1027.22
2018-07-15T05:16:23.778Z,1027.12
2018-07-15T05:17:23.782Z,1026.86
2018-07-15T05:18:23.845Z,1027.13
2018-07-15T05:19:23.791Z,1026.95
2018-07-15T05:20:23.796Z,1026.7
2018-07-15T05:21:23.800Z,1027.01
2018-07-15T05:22:23.807Z,1026.95
2018-07-15T05:23:23.811Z,1026.69
2018-07-15T05:24:23.818Z,1026.6
2018-07-15T05:25:23.822Z,1026.78
2018-07-15T05:26:23.829Z,1026.88
2018-07-15T05:27:23.836Z,1026.74
2018-07-15T05:28:23.842Z,1026.57
2018-07-15T05:29:23.850Z,1026.62
2018-07-15T05:30:23.857Z,1026.49
2018-07-15T05:31:23.866Z,1026.48
2018-07-15T05:32:23.872Z,1026.28
2018-07-15T05:33:23.879Z,1026.51
2018-07-15T05:34:23.888Z,1026.42
2018-07-15T05:35:23.897Z,1026.37
2018-07-15T05:36:23.904Z,1026.24
2018-07-15T05:37:23.913Z,1026.1
2018-07-15T05:38:23.921Z,1026.02
2018-07-15T05:39:23.931Z,1025.94
2018-07-15T05:40:23.940Z,1025.86
2018-07-15T05:41:23.949Z,1025.81
2018-07-15T05:42:23.959Z,1025.69
2018-07-15T05:43:23.973Z,1025.56
2018-07-15T05:44:24.058Z,1025.49
2018-07-15T05:45:23.992Z,1025.55
2018-07-15T05:46:24.000Z,1025.58
2018-07-15T05:47:24.009Z,1025.53
2018-07-15T05:48:24.020Z,1025.49
2018-07-15T05:49:24.031Z,1025.19
2018-07-15T05:50:24.045Z,1025.26
2018-07-15T05:51:24.053Z,1025.83
2018-07-15T05:52:24.063Z,1025.74
2018-07-15T05:53:24.075Z,1025.62
2018-07-15T05:54:24.085Z,1025.52
2018-07-15T05:55:24.102Z,1025.4
2018-07-15T05:56:24.109Z,1025.41
2018-07-15T05:57:24.121Z,1025.37
2018-07-15T05:58:24.135Z,1025.37
2018-07-15T05:59:24.143Z,1025.44
2018-07-15T06:00:24.156Z,1025.53
2018-07-15T06:01:24.167Z,1025.61
2018-07-15T06:02:24.179Z,1025.72
2018-07-15T06:03:24.221Z,1025.82
2018-07-15T06:04:24.212Z,1025.93
2018-07-15T06:05:24.214Z,1025.93
2018-07-15T06:06:24.226Z,1025.89
2018-07-15T06:07:24.239Z,1025.76
2018-07-15T06:08:24.250Z,1025.74
2018-07-15T06:09:24.266Z,1025.7
2018-07-15T06:10:24.274Z,1025.71
2018-07-15T06:11:24.289Z,1025.59
2018-07-15T06:12:24.298Z,1025.5
2018-07-15T06:13:24.311Z,1025.39
2018-07-15T06:14:24.324Z,1025.35
2018-07-15T06:15:24.339Z,1025.33
2018-07-15T06:16:24.348Z,1025.2
2018-07-15T06:17:24.360Z,1025.12
2018-07-15T06:18:24.372Z,1025.03
2018-07-15T06:19:24.386Z,1025.14
2018-07-15T06:20:24.402Z,1025.14
2018-07-15T06:21:24.412Z,1025.01
2018-07-15T06:22:24.422Z,1024.95
2018-07-15T06:23:24.479Z,1024.84
2018-07-15T06:24:24.451Z,1024.71
2018-07-15T06:25:24.461Z,1024.7
2018-07-15T06:26:24.474Z,1024.69
2018-07-15T06:27:24.486Z,1024.7
2018-07-15T06:28:24.499Z,1024.6
2018-07-15T06:29:24.519Z,1024.54
2018-07-15T06:30:24.526Z,1024.5
2018-07-15T06:31:24.540Z,1024.49
2018-07-15T06:33:24.565Z,1024.65
2018-07-15T06:34:24.581Z,1024.61
2018-07-15T06:35:24.591Z,1024.6
2018-07-15T06:36:24.606Z,1024.6
2018-07-15T06:37:24.620Z,1024.56
2018-07-15T06:38:24.632Z,1024.43
2018-07-15T06:39:24.645Z,1024.39
2018-07-15T06:40:24.660Z,1024.28
2018-07-15T06:41:24.674Z,1024.23
2018-07-15T06:42:24.687Z,1024.09
2018-07-15T06:43:24.700Z,1024.08
2018-07-15T06:44:24.717Z,1024.19
2018-07-15T06:45:24.730Z,1024.27
2018-07-15T06:47:24.755Z,1024.26
2018-07-15T06:48:24.768Z,1024.19
2018-07-15T06:49:24.781Z,1024.15
2018-07-15T06:50:25.404Z,1024.07
2018-07-15T06:51:24.809Z,1023.97
2018-07-15T06:52:24.823Z,1023.92
2018-07-15T06:53:24.839Z,1023.87
2018-07-15T06:54:24.852Z,1023.88
2018-07-15T06:55:24.870Z,1023.89
2018-07-15T06:56:24.878Z,1023.9
2018-07-15T06:57:24.892Z,1023.92
2018-07-15T06:58:24.906Z,1023.93
2018-07-15T06:59:24.920Z,1024.01
2018-07-15T07:00:24.937Z,1023.96
2018-07-15T07:01:24.990Z,1023.9
2018-07-15T07:02:24.962Z,1023.13
2018-07-15T07:03:24.976Z,1024.61
2018-07-15T07:04:24.991Z,1023.97
2018-07-15T07:05:25.004Z,1023.92
2018-07-15T07:06:25.018Z,1024.74
2018-07-15T07:07:25.171Z,1025.34
2018-07-15T07:08:25.043Z,1024.77
2018-07-15T07:09:25.056Z,1025.2
2018-07-15T07:10:25.071Z,1024.89
2018-07-15T07:11:25.087Z,1024.65
2018-07-15T07:12:25.094Z,1024.48
2018-07-15T07:13:25.108Z,1024.63
2018-07-15T07:14:25.145Z,1024.65
2018-07-15T07:15:25.134Z,1024.67
2018-07-15T07:16:25.146Z,1024.62
2018-07-15T07:17:25.161Z,1024.55
2018-07-15T07:18:25.172Z,1024.52
2018-07-15T07:19:25.184Z,1024.73
2018-07-15T07:20:25.272Z,1024.82
2018-07-15T07:21:25.211Z,1024.9
2018-07-15T07:22:25.224Z,1024.99
2018-07-15T07:23:25.244Z,1024.92
2018-07-15T07:24:25.249Z,1024.81
2018-07-15T07:25:25.267Z,1024.78
2018-07-15T07:26:25.276Z,1024.83
2018-07-15T07:27:25.290Z,1024.84
2018-07-15T07:28:25.302Z,1024.73
2018-07-15T07:29:25.313Z,1024.97
2018-07-15T07:30:25.323Z,1025.05
2018-07-15T07:31:25.337Z,1025.11
2018-07-15T07:32:25.349Z,1025.14
2018-07-15T07:33:25.362Z,1025.26
2018-07-15T07:34:25.398Z,1025.37
2018-07-15T07:35:25.410Z,1025.45
2018-07-15T07:36:25.399Z,1025.43
2018-07-15T07:37:25.410Z,1025.42
2018-07-15T07:38:25.422Z,1025.47
2018-07-15T07:39:25.440Z,1025.47
2018-07-15T07:40:25.451Z,1025.39
2018-07-15T07:41:25.507Z,1025.29
2018-07-15T07:42:25.470Z,1025.34
2018-07-15T07:43:25.484Z,1025.3
2018-07-15T07:44:25.495Z,1025.24
2018-07-15T07:45:25.509Z,1025.09
2018-07-15T07:46:25.518Z,1024.89
2018-07-15T07:47:25.529Z,1024.72
2018-07-15T07:48:25.541Z,1024.54
2018-07-15T07:49:25.553Z,1024.41
2018-07-15T07:50:25.566Z,1024.42
2018-07-15T07:51:25.576Z,1024.46
2018-07-15T07:52:25.598Z,1024.28
2018-07-15T07:53:25.631Z,1024.88
2018-07-15T07:54:25.615Z,1025.07
2018-07-15T07:55:25.630Z,1024.75
2018-07-15T07:56:25.637Z,1024.84
2018-07-15T07:57:25.649Z,1023.91
2018-07-15T07:58:25.660Z,1024.7
2018-07-15T07:59:25.672Z,1024.29
2018-07-15T08:00:25.684Z,1024.06
2018-07-15T08:01:25.702Z,1023.36
2018-07-15T08:02:25.708Z,1024.02
2018-07-15T08:03:25.720Z,1024.77
2018-07-15T08:04:25.732Z,1024.89
2018-07-15T08:05:25.748Z,1024.82
2018-07-15T08:06:26.006Z,1024.58
2018-07-15T08:07:25.768Z,1023.84
2018-07-15T08:08:25.780Z,1024.27
2018-07-15T08:09:25.821Z,1023.92
2018-07-15T08:10:25.804Z,1023.59
2018-07-15T08:11:25.815Z,1023.93
2018-07-15T08:12:25.830Z,1024.36
2018-07-15T08:13:25.839Z,1024.27
2018-07-15T08:14:25.855Z,1025.13
2018-07-15T08:15:25.865Z,1026.1
2018-07-15T08:16:25.875Z,1025.88
2018-07-15T08:17:25.887Z,1026.84
2018-07-15T08:18:25.897Z,1025.75
2018-07-15T08:19:25.908Z,1025.93
2018-07-15T08:20:25.923Z,1026.63
2018-07-15T08:21:25.930Z,1025.89
2018-07-15T08:22:25.978Z,1025.25
2018-07-15T08:23:25.951Z,1024.86
2018-07-15T08:24:25.961Z,1024.55
2018-07-15T08:25:25.973Z,1024.24
2018-07-15T08:26:25.984Z,1023.86
2018-07-15T08:27:25.995Z,1023.56
2018-07-15T08:28:26.103Z,1023.38
2018-07-15T08:29:26.018Z,1023.3
2018-07-15T08:30:26.029Z,1023.24
2018-07-15T08:31:26.040Z,1023.19
2018-07-15T08:32:26.052Z,1023.14
2018-07-15T08:33:26.063Z,1022.99
2018-07-15T08:34:26.076Z,1022.87
2018-07-15T08:35:26.087Z,1022.77
2018-07-15T08:36:26.098Z,1022.69
2018-07-15T08:37:26.111Z,1022.68
2018-07-15T08:38:26.122Z,1022.63
2018-07-15T08:39:26.134Z,1022.6
2018-07-15T08:40:26.147Z,1022.92
2018-07-15T08:41:26.160Z,1023.01
2018-07-15T08:42:26.172Z,1023.18
2018-07-15T08:43:26.184Z,1023.3
2018-07-15T08:44:26.197Z,1023.31
2018-07-15T08:45:26.209Z,1023.25
2018-07-15T08:46:26.221Z,1023.12
2018-07-15T08:47:26.233Z,1022.96
2018-07-15T08:48:26.245Z,1022.83
2018-07-15T08:49:26.258Z,1022.68
2018-07-15T08:50:26.272Z,1022.53
2018-07-15T08:51:26.283Z,1022.35
2018-07-15T08:52:26.300Z,1022.24
2018-07-15T08:53:26.307Z,1022.14
2018-07-15T08:54:26.320Z,1022.21
2018-07-15T08:55:26.333Z,1022.39
2018-07-15T08:56:26.349Z,1022.79
2018-07-15T08:57:26.364Z,1023.35
2018-07-15T08:58:26.371Z,1024.09
2018-07-15T08:59:26.384Z,1024.89
2018-07-15T09:00:26.394Z,1025.56
2018-07-15T09:01:26.412Z,1026.09
2018-07-15T09:02:26.418Z,1026.62
2018-07-15T09:03:26.517Z,1027.07
2018-07-15T09:04:26.441Z,1027.37
2018-07-15T09:05:26.452Z,1027.6
2018-07-15T09:06:26.463Z,1027.93
2018-07-15T09:07:26.474Z,1028.29
2018-07-15T09:08:26.733Z,1028.64
2018-07-15T09:09:26.495Z,1028.84
2018-07-15T09:10:26.502Z,1029.08
2018-07-15T09:11:26.511Z,1029.3
2018-07-15T09:12:26.520Z,1029.47
2018-07-15T09:13:26.527Z,1029.67
2018-07-15T09:14:26.535Z,1029.8
2018-07-15T09:15:26.543Z,1029.91
2018-07-15T09:16:26.550Z,1030.04
2018-07-15T09:17:26.557Z,1030.13
2018-07-15T09:18:26.565Z,1030.26
2018-07-15T09:19:26.568Z,1030.3
2018-07-15T09:20:26.576Z,1030.29
2018-07-15T09:21:26.583Z,1030.47
2018-07-15T09:22:26.586Z,1030.54
2018-07-15T09:23:26.594Z,1030.65
2018-07-15T09:24:26.606Z,1030.76
2018-07-15T09:25:26.601Z,1030.82
2018-07-15T09:26:26.604Z,1030.83
2018-07-15T09:27:26.608Z,1030.89
2018-07-15T09:28:26.612Z,1030.91
2018-07-15T09:29:26.615Z,1030.97
2018-07-15T09:30:26.619Z,1031.07
2018-07-15T09:31:26.622Z,1031.04
2018-07-15T09:32:26.625Z,1031.08
2018-07-15T09:33:26.627Z,1031.08
2018-07-15T09:34:26.629Z,1031.12
2018-07-15T09:35:26.674Z,1031.1
2018-07-15T09:36:26.635Z,1031.07
2018-07-15T09:37:26.637Z,1031.11
2018-07-15T09:38:26.639Z,1031.11
2018-07-15T09:39:26.641Z,1031.08
2018-07-15T09:40:26.643Z,1031.04
2018-07-15T09:41:26.644Z,1031.05
2018-07-15T09:42:26.646Z,1030.98
2018-07-15T09:43:26.653Z,1030.96
2018-07-15T09:44:26.851Z,1031.03
2018-07-15T09:45:26.650Z,1031.03
2018-07-15T09:46:26.653Z,1031.02
2018-07-15T09:47:26.659Z,1031
2018-07-15T09:48:26.653Z,1030.99
2018-07-15T09:49:26.654Z,1030.88
2018-07-15T09:50:26.665Z,1030.92
2018-07-15T09:51:26.658Z,1030.93
2018-07-15T09:52:26.661Z,1030.99
2018-07-15T09:53:26.661Z,1030.93
2018-07-15T09:54:26.660Z,1031.02
2018-07-15T09:55:26.662Z,1030.96
2018-07-15T09:56:26.663Z,1031.08
2018-07-15T09:57:26.664Z,1031.06
2018-07-15T09:58:26.750Z,1031.15
2018-07-15T09:59:26.673Z,1031.18
2018-07-15T10:00:26.667Z,1031.18
2018-07-15T10:01:26.667Z,1031.23
2018-07-15T10:02:26.668Z,1031.19
2018-07-15T10:03:26.670Z,1031.18
2018-07-15T10:04:26.674Z,1031.16
2018-07-15T10:05:26.681Z,1031.17
2018-07-15T10:06:26.672Z,1031.17
2018-07-15T10:07:26.695Z,1031.13
2018-07-15T10:08:26.675Z,1031.14
2018-07-15T10:09:26.675Z,1031.04
2018-07-15T10:10:26.679Z,1031.08
2018-07-15T10:11:26.676Z,1031.03
2018-07-15T10:12:26.679Z,1031.07
2018-07-15T10:13:26.676Z,1031.06
2018-07-15T10:14:26.676Z,1031.06
2018-07-15T10:15:26.680Z,1031.08
2018-07-15T10:16:26.678Z,1031.12
2018-07-15T10:17:26.678Z,1031.13
2018-07-15T10:18:26.678Z,1031.13
2018-07-15T10:19:26.678Z,1031.1
2018-07-15T10:20:26.680Z,1031.11
2018-07-15T10:21:26.680Z,1031.08
2018-07-15T10:22:26.680Z,1031.12
2018-07-15T10:23:26.681Z,1031.08
2018-07-15T10:24:26.682Z,1031.05
2018-07-15T10:25:26.680Z,1031
2018-07-15T10:26:26.687Z,1030.95
2018-07-15T10:27:26.683Z,1030.95
2018-07-15T10:28:26.687Z,1031.01
2018-07-15T10:29:26.687Z,1030.92
2018-07-15T10:30:26.682Z,1030.96
2018-07-15T10:31:26.688Z,1030.94
2018-07-15T10:32:26.684Z,1030.87
2018-07-15T10:33:26.686Z,1030.85
2018-07-15T10:34:26.684Z,1030.87
2018-07-15T10:35:26.684Z,1030.88
2018-07-15T10:36:26.692Z,1030.86
2018-07-15T10:37:26.685Z,1030.82
2018-07-15T10:38:26.685Z,1030.81
2018-07-15T10:39:26.688Z,1030.72
2018-07-15T10:40:26.687Z,1030.7
2018-07-15T10:41:26.687Z,1030.62
2018-07-15T10:42:26.687Z,1030.57
2018-07-15T10:43:26.688Z,1030.58
2018-07-15T10:44:26.719Z,1030.49
2018-07-15T10:45:26.689Z,1030.42
2018-07-15T10:46:26.692Z,1030.38
2018-07-15T10:47:26.689Z,1030.28
2018-07-15T10:48:26.691Z,1030.21
2018-07-15T10:49:26.691Z,1030.17
2018-07-15T10:50:26.695Z,1030.21
2018-07-15T10:51:26.693Z,1030.19
2018-07-15T10:52:26.693Z,1030.17
2018-07-15T10:53:26.694Z,1030.2
2018-07-15T10:54:26.694Z,1030.2
2018-07-15T10:55:26.696Z,1030.2
2018-07-15T10:56:26.702Z,1030.26
2018-07-15T10:57:26.700Z,1030.29
2018-07-15T10:58:26.700Z,1030.28
2018-07-15T10:59:26.700Z,1030.29
2018-07-15T11:00:26.701Z,1030.23
2018-07-15T11:01:26.701Z,1030.2
2018-07-15T11:02:26.704Z,1030.13
2018-07-15T11:03:26.703Z,1030.09
2018-07-15T11:04:26.706Z,1030.07
2018-07-15T11:05:26.706Z,1030.1
2018-07-15T11:06:26.821Z,1030.05
2018-07-15T11:07:26.708Z,1030.06
2018-07-15T11:08:26.708Z,1029.95
2018-07-15T11:09:26.715Z,1029.98
2018-07-15T11:10:26.714Z,1029.99
2018-07-15T11:11:26.712Z,1029.97
2018-07-15T11:12:26.712Z,1029.94
2018-07-15T11:13:26.765Z,1029.93
2018-07-15T11:14:26.714Z,1029.97
2018-07-15T11:15:26.716Z,1029.94
2018-07-15T11:16:26.734Z,1029.95
2018-07-15T11:17:26.717Z,1029.94
2018-07-15T11:18:26.719Z,1029.94
2018-07-15T11:19:26.723Z,1029.95
2018-07-15T11:20:26.723Z,1030.03
2018-07-15T11:21:26.723Z,1030.07
2018-07-15T11:22:26.799Z,1030.04
2018-07-15T11:23:26.725Z,1030.06
2018-07-15T11:24:26.726Z,1030.01
2018-07-15T11:25:26.727Z,1030.09
2018-07-15T11:26:26.729Z,1030.09
2018-07-15T11:27:26.729Z,1030.07
2018-07-15T11:28:26.730Z,1030.07
2018-07-15T11:29:26.731Z,1030.08
2018-07-15T11:30:26.732Z,1030.05
2018-07-15T11:31:26.870Z,1029.95
2018-07-15T11:32:26.734Z,1029.89
2018-07-15T11:33:26.739Z,1029.88
2018-07-15T11:34:26.738Z,1029.88
2018-07-15T11:35:26.742Z,1029.88
2018-07-15T11:36:26.740Z,1029.86
2018-07-15T11:37:26.743Z,1029.79
2018-07-15T11:38:26.743Z,1029.79
2018-07-15T11:39:26.744Z,1029.76
2018-07-15T11:40:26.746Z,1029.72
2018-07-15T11:41:26.745Z,1029.72
2018-07-15T11:42:26.748Z,1029.88
2018-07-15T11:43:26.758Z,1029.84
2018-07-15T11:44:26.752Z,1029.89
2018-07-15T11:45:26.756Z,1029.88
2018-07-15T11:46:26.751Z,1029.93
2018-07-15T11:47:26.775Z,1029.92
2018-07-15T11:48:26.754Z,1029.93
2018-07-15T11:49:26.754Z,1029.95
2018-07-15T11:50:26.755Z,1029.9
2018-07-15T11:51:26.756Z,1029.87
2018-07-15T11:52:26.756Z,1029.89
2018-07-15T11:53:26.757Z,1029.83
2018-07-15T11:54:26.804Z,1029.75
2018-07-15T11:55:26.760Z,1029.76
2018-07-15T11:56:26.761Z,1029.7
2018-07-15T11:57:26.761Z,1029.75
2018-07-15T11:58:26.762Z,1029.69
2018-07-15T11:59:26.764Z,1029.65
2018-07-15T12:00:26.764Z,1029.63
2018-07-15T12:01:26.777Z,1029.67
2018-07-15T12:02:26.766Z,1029.63
2018-07-15T12:03:26.766Z,1029.65
2018-07-15T12:04:26.767Z,1029.6
2018-07-15T12:05:26.768Z,1029.62
2018-07-15T12:06:26.777Z,1029.63
2018-07-15T12:07:26.773Z,1029.58
2018-07-15T12:08:26.770Z,1029.59
2018-07-15T12:09:26.771Z,1029.64
2018-07-15T12:10:26.772Z,1029.63
2018-07-15T12:11:26.773Z,1029.64